createdAt,value
2024-02-05T00:01:28.366Z,-19.41
2024-02-05T00:04:32.945Z,-19.52
2024-02-05T00:07:37.421Z,-19.52
2024-02-05T00:10:41.752Z,-19.46
2024-02-05T00:13:45.629Z,-19.51
2024-02-05T00:16:49.292Z,-19.64
2024-02-05T00:19:54.056Z,-19.71
2024-02-05T00:22:57.682Z,-19.68
2024-02-05T00:26:01.180Z,-19.73
2024-02-05T00:29:07.231Z,-19.99
2024-02-05T00:32:11.230Z,-20.01
2024-02-05T00:35:14.779Z,-20.10
2024-02-05T00:38:18.849Z,-20.02
2024-02-05T00:41:22.538Z,-20.04
2024-02-05T00:44:26.172Z,-19.99
2024-02-05T00:47:29.826Z,-19.99
2024-02-05T00:50:33.442Z,-19.97
2024-02-05T00:53:37.250Z,-19.95
2024-02-05T00:56:40.888Z,-19.93
2024-02-05T00:59:45.537Z,-20.03
2024-02-05T01:02:48.994Z,-20.06
2024-02-05T01:05:53.787Z,-20.13
2024-02-05T01:08:59.501Z,-20.02
2024-02-05T01:12:03.271Z,-20.00
2024-02-05T01:15:07.524Z,-19.93
2024-02-05T01:18:11.115Z,-19.79
2024-02-05T01:21:14.922Z,-19.65
2024-02-05T01:24:18.588Z,-19.55
2024-02-05T01:27:22.036Z,-19.51
2024-02-05T01:30:25.610Z,-19.48
2024-02-05T01:33:29.031Z,-19.40
2024-02-05T01:36:33.280Z,-19.41
2024-02-05T01:42:57.141Z,-19.24
2024-02-05T01:46:01.490Z,-19.15
2024-02-05T01:49:08.747Z,-19.03
2024-02-05T01:52:15.554Z,-18.96
2024-02-05T01:55:23.658Z,-18.90
2024-02-05T01:58:27.921Z,-18.73
2024-02-05T02:01:35.103Z,-18.65
2024-02-05T02:04:39.777Z,-18.53
2024-02-05T02:07:43.820Z,-18.37
2024-02-05T02:10:48.374Z,-18.16
2024-02-05T02:13:51.879Z,-18.00
2024-02-05T02:16:56.535Z,-17.93
2024-02-05T02:20:00.467Z,-18.07
2024-02-05T02:23:14.346Z,-18.17
2024-02-05T02:26:18.299Z,-18.07
2024-02-05T02:29:21.872Z,-18.06
2024-02-05T02:32:46.497Z,-17.94
2024-02-05T02:36:09.274Z,-17.79
2024-02-05T02:39:24.993Z,-17.71
2024-02-05T02:42:29.718Z,-17.66
2024-02-05T02:45:34.074Z,-17.56
2024-02-05T02:48:38.178Z,-17.48
2024-02-05T02:51:42.146Z,-17.32
2024-02-05T02:54:45.758Z,-17.17
2024-02-05T02:57:49.532Z,-17.05
2024-02-05T03:00:53.118Z,-17.07
2024-02-05T03:03:56.657Z,-17.15
2024-02-05T03:07:00.690Z,-17.08
2024-02-05T03:10:08.078Z,-16.94
2024-02-05T03:13:12.400Z,-16.88
2024-02-05T03:16:16.651Z,-16.73
2024-02-05T03:19:20.508Z,-16.58
2024-02-05T03:22:25.569Z,-16.44
2024-02-05T03:25:30.129Z,-16.29
2024-02-05T03:28:33.511Z,-16.17
2024-02-05T03:31:43.176Z,-16.11
2024-02-05T03:34:47.100Z,-16.04
2024-02-05T03:37:50.921Z,-15.98
2024-02-05T03:40:54.495Z,-15.91
2024-02-05T03:43:58.318Z,-15.90
2024-02-05T03:47:02.908Z,-15.80
2024-02-05T03:50:07.010Z,-15.68
2024-02-05T03:53:10.461Z,-15.52
2024-02-05T03:56:14.863Z,-15.39
2024-02-05T03:59:18.701Z,-15.27
2024-02-05T04:02:23.782Z,-15.21
2024-02-05T04:05:30.411Z,-15.23
2024-02-05T04:08:34.251Z,-15.15
2024-02-05T04:11:41.686Z,-15.03
2024-02-05T04:14:45.272Z,-14.83
2024-02-05T04:17:48.901Z,-14.75
2024-02-05T04:20:58.461Z,-14.71
2024-02-05T04:24:02.104Z,-14.58
2024-02-05T04:27:06.778Z,-14.53
2024-02-05T04:30:10.544Z,-14.47
2024-02-05T04:33:14.489Z,-14.49
2024-02-05T04:36:18.167Z,-14.50
2024-02-05T04:39:23.033Z,-14.44
2024-02-05T04:42:26.571Z,-14.35
2024-02-05T04:45:30.163Z,-14.35
2024-02-05T04:48:33.764Z,-14.41
2024-02-05T04:51:37.493Z,-14.39
2024-02-05T04:54:42.187Z,-14.43
2024-02-05T04:57:51.000Z,-14.41
2024-02-05T05:00:54.753Z,-14.33
2024-02-05T05:03:58.421Z,-14.28
2024-02-05T05:07:02.059Z,-14.18
2024-02-05T05:10:07.384Z,-14.19
2024-02-05T05:13:11.154Z,-14.23
2024-02-05T05:16:14.741Z,-14.10
2024-02-05T05:19:19.574Z,-13.91
2024-02-05T05:22:23.262Z,-13.74
2024-02-05T05:25:26.826Z,-13.63
2024-02-05T05:28:32.722Z,-13.49
2024-02-05T05:31:36.340Z,-13.44
2024-02-05T05:34:39.988Z,-13.38
2024-02-05T05:37:44.908Z,-13.41
2024-02-05T05:40:48.652Z,-13.34
2024-02-05T05:43:54.332Z,-13.35
2024-02-05T05:46:59.433Z,-13.33
2024-02-05T05:50:03.355Z,-13.31
2024-02-05T05:53:07.077Z,-13.19
2024-02-05T05:56:11.436Z,-13.09
2024-02-05T05:59:15.229Z,-13.00
2024-02-05T06:02:18.841Z,-12.88
2024-02-05T06:05:22.305Z,-12.88
2024-02-05T06:08:25.973Z,-12.91
2024-02-05T06:11:30.191Z,-12.89
2024-02-05T06:14:34.115Z,-12.80
2024-02-05T06:17:37.616Z,-12.71
2024-02-05T06:20:42.131Z,-12.61
2024-02-05T06:23:45.753Z,-12.51
2024-02-05T06:26:49.482Z,-12.58
2024-02-05T06:29:53.098Z,-12.51
2024-02-05T06:32:56.606Z,-12.42
2024-02-05T06:36:00.471Z,-12.37
2024-02-05T06:39:05.506Z,-12.25
2024-02-05T06:42:08.962Z,-12.15
2024-02-05T06:45:14.027Z,-12.01
2024-02-05T06:48:19.320Z,-11.97
2024-02-05T06:51:22.902Z,-11.94
2024-02-05T06:54:26.435Z,-11.88
2024-02-05T06:57:30.036Z,-11.81
2024-02-05T07:00:34.554Z,-11.72
2024-02-05T07:03:38.178Z,-11.71
2024-02-05T07:06:41.813Z,-11.63
2024-02-05T07:09:45.305Z,-11.59
2024-02-05T07:12:49.109Z,-11.55
2024-02-05T07:15:52.537Z,-11.46
2024-02-05T07:18:56.305Z,-11.36
2024-02-05T07:22:00.821Z,-11.26
2024-02-05T07:25:05.015Z,-11.11
2024-02-05T07:28:08.730Z,-11.05
2024-02-05T07:31:12.315Z,-11.03
2024-02-05T07:34:16.070Z,-10.98
2024-02-05T07:37:19.603Z,-10.87
2024-02-05T07:40:23.871Z,-10.81
2024-02-05T07:43:28.301Z,-10.80
2024-02-05T07:46:32.960Z,-10.79
2024-02-05T07:49:37.184Z,-10.76
2024-02-05T07:52:40.780Z,-10.73
2024-02-05T07:55:44.221Z,-10.77
2024-02-05T07:58:47.957Z,-10.78
2024-02-05T08:01:51.662Z,-10.79
2024-02-05T08:08:18.003Z,-10.75
2024-02-05T08:11:22.272Z,-10.74
2024-02-05T08:14:25.827Z,-10.82
2024-02-05T08:17:29.438Z,-10.80
2024-02-05T08:20:33.060Z,-10.79
2024-02-05T08:26:58.426Z,-10.76
2024-02-05T08:30:01.984Z,-10.79
2024-02-05T08:33:05.524Z,-10.79
2024-02-05T08:36:09.411Z,-10.78
2024-02-05T08:39:13.090Z,-10.82
2024-02-05T08:42:25.130Z,-10.91
2024-02-05T08:45:36.613Z,-10.96
2024-02-05T08:48:41.153Z,-11.04
2024-02-05T08:51:44.548Z,-11.11
2024-02-05T08:54:48.302Z,-11.15
2024-02-05T08:57:52.375Z,-11.16
2024-02-05T09:00:55.922Z,-11.12
2024-02-05T09:03:59.569Z,-11.12
2024-02-05T09:07:03.286Z,-11.21
2024-02-05T09:10:09.325Z,-11.29
2024-02-05T09:13:13.272Z,-11.33
2024-02-05T09:16:16.775Z,-11.33
2024-02-05T09:19:20.760Z,-11.33
2024-02-05T09:22:24.714Z,-11.31
2024-02-05T09:25:28.460Z,-11.34
2024-02-05T09:28:32.457Z,-11.33
2024-02-05T09:31:37.443Z,-11.32
2024-02-05T09:34:41.397Z,-11.32
2024-02-05T09:37:45.239Z,-11.41
2024-02-05T09:40:48.972Z,-11.55
2024-02-05T09:43:52.724Z,-11.71
2024-02-05T09:46:58.305Z,-11.77
2024-02-05T09:50:05.296Z,-11.79
2024-02-05T09:53:11.296Z,-11.85
2024-02-05T09:56:17.428Z,-11.87
2024-02-05T09:59:21.230Z,-11.93
2024-02-05T10:02:27.590Z,-11.97
2024-02-05T10:05:31.870Z,-12.03
2024-02-05T10:08:36.646Z,-12.15
2024-02-05T10:11:45.862Z,-12.24
2024-02-05T10:14:49.882Z,-12.39
2024-02-05T10:17:53.606Z,-12.46
2024-02-05T10:20:58.238Z,-12.59
2024-02-05T10:24:01.941Z,-12.74
2024-02-05T10:27:05.819Z,-12.87
2024-02-05T10:30:11.377Z,-12.92
2024-02-05T10:33:22.073Z,-13.04
2024-02-05T10:36:25.740Z,-13.10
2024-02-05T10:39:29.490Z,-13.14
2024-02-05T10:42:34.514Z,-13.16
2024-02-05T10:45:41.230Z,-13.27
2024-02-05T10:48:47.376Z,-13.27
2024-02-05T10:51:51.108Z,-13.38
2024-02-05T10:54:55.785Z,-13.46
2024-02-05T10:58:02.887Z,-13.52
2024-02-05T11:01:07.261Z,-13.58
2024-02-05T11:04:12.691Z,-13.66
2024-02-05T11:07:20.441Z,-13.72
2024-02-05T11:10:27.650Z,-13.81
2024-02-05T11:13:34.205Z,-13.93
2024-02-05T11:16:41.280Z,-13.96
2024-02-05T11:19:46.261Z,-14.05
2024-02-05T11:22:52.196Z,-14.12
2024-02-05T11:25:56.564Z,-14.13
2024-02-05T11:29:00.275Z,-14.17
2024-02-05T11:32:06.973Z,-14.23
2024-02-05T11:35:15.781Z,-14.32
2024-02-05T11:38:26.448Z,-14.38
2024-02-05T11:41:30.020Z,-14.44
2024-02-05T11:44:34.002Z,-14.48
2024-02-05T11:47:38.475Z,-14.52
2024-02-05T11:50:43.680Z,-14.62
2024-02-05T11:53:49.081Z,-14.73
2024-02-05T11:56:52.605Z,-14.73
2024-02-05T11:59:56.248Z,-14.78
2024-02-05T12:02:59.801Z,-14.80
2024-02-05T12:06:05.158Z,-14.85
2024-02-05T12:09:09.715Z,-14.90
2024-02-05T12:12:14.283Z,-14.96
2024-02-05T12:15:27.672Z,-15.00
2024-02-05T12:18:31.250Z,-15.13
2024-02-05T12:21:35.451Z,-15.11
2024-02-05T12:24:40.211Z,-15.14
2024-02-05T12:27:45.320Z,-15.21
2024-02-05T12:30:59.983Z,-15.28
2024-02-05T12:34:03.847Z,-15.34
2024-02-05T12:37:08.702Z,-15.36
2024-02-05T12:40:13.259Z,-15.40
2024-02-05T12:43:16.808Z,-15.42
2024-02-05T12:46:20.729Z,-15.51
2024-02-05T12:49:27.051Z,-15.48
2024-02-05T12:52:31.845Z,-15.52
2024-02-05T12:55:36.156Z,-15.58
2024-02-05T12:58:42.726Z,-15.57
2024-02-05T13:01:46.577Z,-15.68
2024-02-05T13:04:50.751Z,-15.77
2024-02-05T13:07:54.462Z,-15.82
2024-02-05T13:10:58.746Z,-15.84
2024-02-05T13:14:03.540Z,-15.97
2024-02-05T13:17:07.842Z,-16.07
2024-02-05T13:20:11.807Z,-16.06
2024-02-05T13:23:16.496Z,-16.09
2024-02-05T13:26:20.291Z,-16.11
2024-02-05T13:29:26.914Z,-16.12
2024-02-05T13:32:30.532Z,-16.08
2024-02-05T13:35:34.020Z,-16.09
2024-02-05T13:38:37.637Z,-16.14
2024-02-05T13:41:44.066Z,-16.14
2024-02-05T13:44:47.981Z,-16.18
2024-02-05T13:47:53.993Z,-16.18
2024-02-05T13:50:57.705Z,-16.26
2024-02-05T13:54:01.323Z,-16.30
2024-02-05T13:57:04.917Z,-16.38
2024-02-05T14:00:11.462Z,-16.46
2024-02-05T14:03:17.904Z,-16.43
2024-02-05T14:06:21.974Z,-16.45
2024-02-05T14:09:25.763Z,-16.52
2024-02-05T14:12:29.423Z,-16.51
2024-02-05T14:15:35.357Z,-16.44
2024-02-05T14:18:39.045Z,-16.44
2024-02-05T14:21:42.861Z,-16.57
2024-02-05T14:24:46.558Z,-16.64
2024-02-05T14:27:50.059Z,-16.69
2024-02-05T14:30:53.899Z,-16.71
2024-02-05T14:33:57.415Z,-16.73
2024-02-05T14:37:01.843Z,-16.78
2024-02-05T14:40:07.513Z,-16.82
2024-02-05T14:43:11.242Z,-16.94
2024-02-05T14:46:14.608Z,-16.97
2024-02-05T14:49:23.557Z,-16.88
2024-02-05T14:52:27.414Z,-16.91
2024-02-05T14:55:31.281Z,-16.99
2024-02-05T14:58:35.781Z,-17.02
2024-02-05T15:01:39.442Z,-17.04
2024-02-05T15:04:43.120Z,-17.15
2024-02-05T15:07:46.871Z,-17.25
2024-02-05T15:10:50.279Z,-17.33
2024-02-05T15:13:54.449Z,-17.49
2024-02-05T15:16:58.654Z,-17.49
2024-02-05T15:20:02.356Z,-17.56
2024-02-05T15:23:06.098Z,-17.58
2024-02-05T15:26:10.413Z,-17.65
2024-02-05T15:29:17.954Z,-17.61
2024-02-05T15:32:21.704Z,-17.70
2024-02-05T15:35:26.554Z,-17.69
2024-02-05T15:38:30.260Z,-17.76
2024-02-05T15:41:33.988Z,-17.73
2024-02-05T15:44:37.779Z,-17.72
2024-02-05T15:47:42.066Z,-17.74
2024-02-05T15:50:45.674Z,-17.75
2024-02-05T15:53:49.460Z,-17.85
2024-02-05T15:56:53.566Z,-17.92
2024-02-05T15:59:57.301Z,-18.03
2024-02-05T16:03:00.720Z,-18.12
2024-02-05T16:06:05.713Z,-18.07
2024-02-05T16:09:09.911Z,-18.01
2024-02-05T16:12:13.472Z,-18.04
2024-02-05T16:15:17.630Z,-18.05
2024-02-05T16:18:21.250Z,-17.97
2024-02-05T16:21:24.921Z,-18.09
2024-02-05T16:24:28.458Z,-18.16
2024-02-05T16:27:32.892Z,-18.17
2024-02-05T16:30:37.547Z,-18.24
2024-02-05T16:33:41.196Z,-18.33
2024-02-05T16:36:45.038Z,-18.39
2024-02-05T16:39:48.786Z,-18.40
2024-02-05T16:42:53.054Z,-18.38
2024-02-05T16:45:58.335Z,-18.44
2024-02-05T16:49:02.846Z,-18.53
2024-02-05T16:52:06.789Z,-18.51
2024-02-05T16:55:11.801Z,-18.53
2024-02-05T16:58:15.741Z,-18.60
2024-02-05T17:01:20.104Z,-18.64
2024-02-05T17:04:23.641Z,-18.68
2024-02-05T17:07:27.569Z,-18.75
2024-02-05T17:10:31.114Z,-18.79
2024-02-05T17:13:34.880Z,-18.85
2024-02-05T17:16:51.102Z,-18.78
2024-02-05T17:20:01.927Z,-18.82
2024-02-05T17:23:06.855Z,-18.80
2024-02-05T17:29:30.993Z,-18.82
2024-02-05T17:32:35.141Z,-18.88
2024-02-05T17:35:39.391Z,-18.91
2024-02-05T17:38:42.982Z,-19.01
2024-02-05T17:41:46.362Z,-19.01
2024-02-05T17:44:50.158Z,-19.07
2024-02-05T17:47:53.784Z,-19.10
2024-02-05T17:50:57.388Z,-19.04
2024-02-05T17:54:01.463Z,-19.04
2024-02-05T17:57:05.508Z,-19.07
2024-02-05T18:00:09.651Z,-19.09
2024-02-05T18:03:13.308Z,-19.10
2024-02-05T18:06:23.993Z,-19.10
2024-02-05T18:09:27.862Z,-19.07
2024-02-05T18:12:31.580Z,-19.09
2024-02-05T18:15:35.046Z,-19.12
2024-02-05T18:18:40.075Z,-19.12
2024-02-05T18:21:44.088Z,-19.06
2024-02-05T18:24:50.494Z,-19.16
2024-02-05T18:27:54.398Z,-19.29
2024-02-05T18:30:58.102Z,-19.38
2024-02-05T18:34:01.975Z,-19.38
2024-02-05T18:37:06.483Z,-19.48
2024-02-05T18:40:12.228Z,-19.48
2024-02-05T18:43:17.864Z,-19.40
2024-02-05T18:46:22.358Z,-19.53
2024-02-05T18:49:26.720Z,-19.61
2024-02-05T18:52:30.333Z,-19.58
2024-02-05T18:55:35.078Z,-19.57
2024-02-05T18:58:39.672Z,-19.56
2024-02-05T19:01:43.555Z,-19.57
2024-02-05T19:04:47.052Z,-19.53
2024-02-05T19:07:50.636Z,-19.65
2024-02-05T19:10:55.012Z,-19.58
2024-02-05T19:13:58.410Z,-19.54
2024-02-05T19:17:01.825Z,-19.57
2024-02-05T19:20:06.125Z,-19.62
2024-02-05T19:23:09.640Z,-19.66
2024-02-05T19:26:13.445Z,-19.58
2024-02-05T19:29:20.626Z,-19.58
2024-02-05T19:32:25.532Z,-19.56
2024-02-05T19:35:29.179Z,-19.63
2024-02-05T19:38:32.556Z,-19.66
2024-02-05T19:41:36.590Z,-19.74
2024-02-05T19:44:40.305Z,-19.74
2024-02-05T19:47:44.073Z,-19.66
2024-02-05T19:50:47.607Z,-19.70
2024-02-05T19:53:51.646Z,-19.72
2024-02-05T19:56:55.397Z,-19.67
2024-02-05T19:59:59.120Z,-19.62
2024-02-05T20:03:05.016Z,-19.66
2024-02-05T20:06:09.873Z,-19.76
2024-02-05T20:09:13.484Z,-19.84
2024-02-05T20:12:17.028Z,-19.80
2024-02-05T20:15:20.689Z,-19.87
2024-02-05T20:18:24.423Z,-20.03
2024-02-05T20:21:28.745Z,-20.03
2024-02-05T20:24:33.260Z,-20.00
2024-02-05T20:27:38.302Z,-19.93
2024-02-05T20:30:41.822Z,-19.90
2024-02-05T20:33:45.610Z,-19.97
2024-02-05T20:36:54.156Z,-20.06
2024-02-05T20:39:57.852Z,-20.06
2024-02-05T20:43:01.713Z,-20.07
2024-02-05T20:46:05.707Z,-20.25
2024-02-05T20:49:09.478Z,-20.23
2024-02-05T20:52:13.239Z,-20.24
2024-02-05T20:55:16.971Z,-20.22
2024-02-05T20:58:21.111Z,-20.21
2024-02-05T21:01:26.496Z,-20.29
2024-02-05T21:04:30.109Z,-20.37
2024-02-05T21:07:35.546Z,-20.44
2024-02-05T21:10:39.311Z,-20.43
2024-02-05T21:13:43.038Z,-20.48
2024-02-05T21:16:46.861Z,-20.53
2024-02-05T21:19:50.681Z,-20.56
2024-02-05T21:22:55.034Z,-20.60
2024-02-05T21:25:58.509Z,-20.60
2024-02-05T21:29:05.793Z,-20.54
2024-02-05T21:32:12.175Z,-20.52
2024-02-05T21:35:16.247Z,-20.54
2024-02-05T21:38:20.208Z,-20.50
2024-02-05T21:41:23.766Z,-20.52
2024-02-05T21:44:27.935Z,-20.50
2024-02-05T21:47:31.529Z,-20.45
2024-02-05T21:50:35.198Z,-20.37
2024-02-05T21:53:38.896Z,-20.41
2024-02-05T21:56:42.665Z,-20.46
2024-02-05T21:59:46.338Z,-20.48
2024-02-05T22:02:49.919Z,-20.51
2024-02-05T22:05:53.326Z,-20.58
2024-02-05T22:08:57.672Z,-20.57
2024-02-05T22:12:01.313Z,-20.58
2024-02-05T22:15:05.700Z,-20.56
2024-02-05T22:18:09.632Z,-20.56
2024-02-05T22:21:13.448Z,-20.66
2024-02-05T22:24:18.477Z,-20.69
2024-02-05T22:27:22.071Z,-20.66
2024-02-05T22:30:26.975Z,-20.61
2024-02-05T22:33:36.123Z,-20.53
2024-02-05T22:36:40.625Z,-20.51
2024-02-05T22:39:44.112Z,-20.53
2024-02-05T22:42:47.594Z,-20.61
2024-02-05T22:45:51.512Z,-20.79
2024-02-05T22:48:55.074Z,-20.88
2024-02-05T22:51:58.490Z,-20.83
2024-02-05T22:55:02.360Z,-20.83
2024-02-05T22:58:06.324Z,-20.94
2024-02-05T23:01:10.326Z,-21.01
2024-02-05T23:04:15.306Z,-20.93
2024-02-05T23:07:19.757Z,-20.94
2024-02-05T23:10:24.913Z,-20.99
2024-02-05T23:13:28.565Z,-21.06
2024-02-05T23:16:31.940Z,-21.03
2024-02-05T23:19:36.728Z,-21.03
2024-02-05T23:22:40.627Z,-21.01
2024-02-05T23:25:44.262Z,-21.02
2024-02-05T23:28:47.900Z,-21.00
2024-02-05T23:31:51.263Z,-20.92
2024-02-05T23:34:55.064Z,-20.96
2024-02-05T23:37:58.864Z,-20.96
2024-02-05T23:41:02.850Z,-20.97
2024-02-05T23:44:06.605Z,-20.98
2024-02-05T23:47:10.535Z,-20.93
2024-02-05T23:50:14.425Z,-20.86
2024-02-05T23:53:18.073Z,-20.86
2024-02-05T23:56:21.709Z,-20.84
2024-02-05T23:59:26.179Z,-20.81
